sensor_id;sensor_type;location;lat;lon;timestamp;pressure;altitude;pressure_sealevel;temperature;humidity
13033;BME280;6583;42.632;23.298;2022-08-19T00:00:35;92352.03;;;23.15;66.06
13033;BME280;6583;42.632;23.298;2022-08-19T00:03:01;92346.53;;;23.07;65.34
13033;BME280;6583;42.632;23.298;2022-08-19T00:05:30;92349.63;;;23.06;65.87
13033;BME280;6583;42.632;23.298;2022-08-19T00:07:56;92344.53;;;23.04;65.75
13033;BME280;6583;42.632;23.298;2022-08-19T00:10:23;92348.75;;;22.98;64.40
13033;BME280;6583;42.632;23.298;2022-08-19T00:12:50;92354.16;;;22.98;65.18
13033;BME280;6583;42.632;23.298;2022-08-19T00:15:19;92347.06;;;22.86;65.89
13033;BME280;6583;42.632;23.298;2022-08-19T00:17:46;92349.75;;;22.83;65.47
13033;BME280;6583;42.632;23.298;2022-08-19T00:20:17;92356.38;;;22.89;65.58
13033;BME280;6583;42.632;23.298;2022-08-19T00:22:45;92365.69;;;22.91;65.67
13033;BME280;6583;42.632;23.298;2022-08-19T00:25:13;92363.41;;;22.97;65.38
13033;BME280;6583;42.632;23.298;2022-08-19T00:27:40;92358.06;;;23.04;64.56
13033;BME280;6583;42.632;23.298;2022-08-19T00:30:08;92368.97;;;23.08;64.33
13033;BME280;6583;42.632;23.298;2022-08-19T00:32:36;92362.03;;;23.11;64.33
13033;BME280;6583;42.632;23.298;2022-08-19T00:35:03;92357.38;;;23.07;64.81
13033;BME280;6583;42.632;23.298;2022-08-19T00:37:30;92354.97;;;23.02;64.67
13033;BME280;6583;42.632;23.298;2022-08-19T00:39:59;92355.69;;;22.99;64.57
13033;BME280;6583;42.632;23.298;2022-08-19T00:42:27;92358.84;;;23.01;64.84
13033;BME280;6583;42.632;23.298;2022-08-19T00:44:54;92351.13;;;23.03;64.51
13033;BME280;6583;42.632;23.298;2022-08-19T00:47:21;92348.84;;;23.05;64.24
13033;BME280;6583;42.632;23.298;2022-08-19T00:49:50;92350.03;;;23.08;63.80
13033;BME280;6583;42.632;23.298;2022-08-19T00:52:21;92350.03;;;23.08;64.18
13033;BME280;6583;42.632;23.298;2022-08-19T00:54:48;92339.06;;;22.97;63.85
13033;BME280;6583;42.632;23.298;2022-08-19T00:57:22;92346.38;;;22.93;65.57
13033;BME280;6583;42.632;23.298;2022-08-19T00:59:52;92340.09;;;22.85;64.88
13033;BME280;6583;42.632;23.298;2022-08-19T01:02:21;92346.19;;;22.79;65.76
13033;BME280;6583;42.632;23.298;2022-08-19T01:04:48;92341.56;;;22.76;65.93
13033;BME280;6583;42.632;23.298;2022-08-19T01:07:14;92354.66;;;22.73;66.42
13033;BME280;6583;42.632;23.298;2022-08-19T01:09:41;92346.13;;;22.71;65.79
13033;BME280;6583;42.632;23.298;2022-08-19T01:12:08;92346.94;;;22.72;65.53
13033;BME280;6583;42.632;23.298;2022-08-19T01:14:39;92342.22;;;22.65;66.07
13033;BME280;6583;42.632;23.298;2022-08-19T01:17:06;92339.03;;;22.60;66.64
13033;BME280;6583;42.632;23.298;2022-08-19T01:19:36;92339.44;;;22.58;66.27
13033;BME280;6583;42.632;23.298;2022-08-19T01:22:08;92333.59;;;22.56;66.83
13033;BME280;6583;42.632;23.298;2022-08-19T01:24:39;92337.50;;;22.59;66.42
13033;BME280;6583;42.632;23.298;2022-08-19T01:27:06;92341.38;;;22.61;66.14
13033;BME280;6583;42.632;23.298;2022-08-19T01:29:37;92333.38;;;22.68;66.43
13033;BME280;6583;42.632;23.298;2022-08-19T01:32:05;92338.78;;;22.68;66.17
13033;BME280;6583;42.632;23.298;2022-08-19T01:34:32;92335.28;;;22.68;66.39
13033;BME280;6583;42.632;23.298;2022-08-19T01:36:59;92338.34;;;22.66;67.20
13033;BME280;6583;42.632;23.298;2022-08-19T01:39:27;92343.34;;;22.64;66.97
13033;BME280;6583;42.632;23.298;2022-08-19T01:41:55;92336.81;;;22.65;66.46
13033;BME280;6583;42.632;23.298;2022-08-19T01:44:22;92343.75;;;22.66;66.89
13033;BME280;6583;42.632;23.298;2022-08-19T01:46:51;92341.00;;;22.63;67.21
13033;BME280;6583;42.632;23.298;2022-08-19T01:49:20;92342.22;;;22.65;67.40
13033;BME280;6583;42.632;23.298;2022-08-19T01:51:48;92339.13;;;22.67;66.73
13033;BME280;6583;42.632;23.298;2022-08-19T01:54:17;92333.41;;;22.72;67.07
13033;BME280;6583;42.632;23.298;2022-08-19T01:56:44;92336.84;;;22.69;66.81
13033;BME280;6583;42.632;23.298;2022-08-19T01:59:15;92340.66;;;22.64;67.34
13033;BME280;6583;42.632;23.298;2022-08-19T02:01:43;92341.41;;;22.65;67.01
13033;BME280;6583;42.632;23.298;2022-08-19T02:04:09;92333.69;;;22.63;66.48
13033;BME280;6583;42.632;23.298;2022-08-19T02:06:37;92341.03;;;22.66;66.77
13033;BME280;6583;42.632;23.298;2022-08-19T02:09:07;92332.84;;;22.59;67.15
13033;BME280;6583;42.632;23.298;2022-08-19T02:11:36;92338.19;;;22.52;67.14
13033;BME280;6583;42.632;23.298;2022-08-19T02:14:06;92330.00;;;22.45;67.12
13033;BME280;6583;42.632;23.298;2022-08-19T02:16:35;92338.03;;;22.38;67.60
13033;BME280;6583;42.632;23.298;2022-08-19T02:19:03;92337.97;;;22.34;67.55
13033;BME280;6583;42.632;23.298;2022-08-19T02:21:30;92339.75;;;22.26;67.70
13033;BME280;6583;42.632;23.298;2022-08-19T02:23:57;92341.66;;;22.22;68.36
13033;BME280;6583;42.632;23.298;2022-08-19T02:26:25;92335.09;;;22.23;68.44
13033;BME280;6583;42.632;23.298;2022-08-19T02:28:53;92334.72;;;22.25;67.61
13033;BME280;6583;42.632;23.298;2022-08-19T02:31:23;92326.69;;;22.28;67.97
13033;BME280;6583;42.632;23.298;2022-08-19T02:33:52;92331.78;;;22.33;68.56
13033;BME280;6583;42.632;23.298;2022-08-19T02:36:19;92336.03;;;22.34;67.45
13033;BME280;6583;42.632;23.298;2022-08-19T02:38:46;92328.75;;;22.39;66.91
13033;BME280;6583;42.632;23.298;2022-08-19T02:41:15;92334.97;;;22.39;67.33
13033;BME280;6583;42.632;23.298;2022-08-19T02:43:42;92339.56;;;22.39;66.93
13033;BME280;6583;42.632;23.298;2022-08-19T02:46:14;92337.22;;;22.37;69.26
13033;BME280;6583;42.632;23.298;2022-08-19T02:48:43;92329.44;;;22.32;68.76
13033;BME280;6583;42.632;23.298;2022-08-19T02:51:17;92335.63;;;22.32;68.04
13033;BME280;6583;42.632;23.298;2022-08-19T02:53:44;92329.50;;;22.36;67.57
13033;BME280;6583;42.632;23.298;2022-08-19T02:56:11;92341.53;;;22.42;67.07
13033;BME280;6583;42.632;23.298;2022-08-19T02:58:38;92350.47;;;22.46;66.81
13033;BME280;6583;42.632;23.298;2022-08-19T03:01:05;92345.50;;;22.48;66.91
13033;BME280;6583;42.632;23.298;2022-08-19T03:03:32;92348.19;;;22.48;66.86
13033;BME280;6583;42.632;23.298;2022-08-19T03:06:07;92346.22;;;22.45;67.49
13033;BME280;6583;42.632;23.298;2022-08-19T03:08:36;92347.34;;;22.44;66.74
13033;BME280;6583;42.632;23.298;2022-08-19T03:11:03;92349.66;;;22.42;66.85
13033;BME280;6583;42.632;23.298;2022-08-19T03:13:30;92346.56;;;22.43;66.56
13033;BME280;6583;42.632;23.298;2022-08-19T03:15:57;92328.06;;;22.45;66.88
13033;BME280;6583;42.632;23.298;2022-08-19T03:18:24;92338.50;;;22.47;66.39
13033;BME280;6583;42.632;23.298;2022-08-19T03:20:52;92333.50;;;22.49;66.02
13033;BME280;6583;42.632;23.298;2022-08-19T03:23:20;92333.13;;;22.50;66.01
13033;BME280;6583;42.632;23.298;2022-08-19T03:25:50;92330.06;;;22.52;66.59
13033;BME280;6583;42.632;23.298;2022-08-19T03:28:17;92328.78;;;22.42;67.56
13033;BME280;6583;42.632;23.298;2022-08-19T03:30:55;92332.56;;;22.34;68.52
13033;BME280;6583;42.632;23.298;2022-08-19T03:33:23;92338.59;;;22.24;69.31
13033;BME280;6583;42.632;23.298;2022-08-19T03:36:00;92337.75;;;22.20;68.21
13033;BME280;6583;42.632;23.298;2022-08-19T03:38:26;92338.09;;;22.18;68.23
13033;BME280;6583;42.632;23.298;2022-08-19T03:40:54;92344.16;;;22.08;68.08
13033;BME280;6583;42.632;23.298;2022-08-19T03:43:21;92342.25;;;22.08;69.35
13033;BME280;6583;42.632;23.298;2022-08-19T03:45:48;92339.50;;;22.05;68.76
13033;BME280;6583;42.632;23.298;2022-08-19T03:48:16;92346.06;;;22.07;68.53
13033;BME280;6583;42.632;23.298;2022-08-19T03:50:43;92345.72;;;22.09;68.82
13033;BME280;6583;42.632;23.298;2022-08-19T03:53:09;92351.53;;;22.11;68.95
13033;BME280;6583;42.632;23.298;2022-08-19T03:55:39;92366.66;;;22.15;68.19
13033;BME280;6583;42.632;23.298;2022-08-19T03:58:07;92364.00;;;22.19;70.17
13033;BME280;6583;42.632;23.298;2022-08-19T04:00:36;92363.50;;;22.10;68.80
13033;BME280;6583;42.632;23.298;2022-08-19T04:03:03;92372.34;;;22.07;68.99
13033;BME280;6583;42.632;23.298;2022-08-19T04:05:29;92370.44;;;22.11;68.55
13033;BME280;6583;42.632;23.298;2022-08-19T04:07:56;92373.19;;;22.14;68.89
13033;BME280;6583;42.632;23.298;2022-08-19T04:10:24;92372.88;;;22.20;68.00
13033;BME280;6583;42.632;23.298;2022-08-19T04:12:50;92365.69;;;22.27;67.26
13033;BME280;6583;42.632;23.298;2022-08-19T04:15:19;92379.25;;;22.31;67.69
13033;BME280;6583;42.632;23.298;2022-08-19T04:17:46;92378.09;;;22.32;69.14
13033;BME280;6583;42.632;23.298;2022-08-19T04:20:13;92370.06;;;22.36;68.49
13033;BME280;6583;42.632;23.298;2022-08-19T04:22:39;92379.38;;;22.42;67.22
13033;BME280;6583;42.632;23.298;2022-08-19T04:25:07;92378.69;;;22.48;66.97
13033;BME280;6583;42.632;23.298;2022-08-19T04:27:33;92379.06;;;22.47;68.57
13033;BME280;6583;42.632;23.298;2022-08-19T04:30:00;92387.59;;;22.49;69.18
13033;BME280;6583;42.632;23.298;2022-08-19T04:32:28;92382.22;;;22.52;67.76
13033;BME280;6583;42.632;23.298;2022-08-19T04:34:57;92384.97;;;22.56;67.57
13033;BME280;6583;42.632;23.298;2022-08-19T04:37:24;92377.69;;;22.60;67.83
13033;BME280;6583;42.632;23.298;2022-08-19T04:39:51;92381.63;;;22.66;71.04
13033;BME280;6583;42.632;23.298;2022-08-19T04:42:36;92379.28;;;22.65;68.80
13033;BME280;6583;42.632;23.298;2022-08-19T04:45:06;92377.00;;;22.67;69.49
13033;BME280;6583;42.632;23.298;2022-08-19T04:47:36;92378.19;;;22.69;70.44
13033;BME280;6583;42.632;23.298;2022-08-19T04:50:04;92371.69;;;22.74;70.63
13033;BME280;6583;42.632;23.298;2022-08-19T04:52:31;92370.50;;;22.75;71.09
13033;BME280;6583;42.632;23.298;2022-08-19T04:54:58;92372.09;;;22.76;72.15
13033;BME280;6583;42.632;23.298;2022-08-19T04:57:25;92380.97;;;22.77;71.57
13033;BME280;6583;42.632;23.298;2022-08-19T04:59:54;92389.56;;;22.82;71.92
13033;BME280;6583;42.632;23.298;2022-08-19T05:02:21;92388.44;;;22.87;69.71
13033;BME280;6583;42.632;23.298;2022-08-19T05:04:49;92389.56;;;22.82;69.78
13033;BME280;6583;42.632;23.298;2022-08-19T05:07:16;92386.97;;;22.93;68.70
13033;BME280;6583;42.632;23.298;2022-08-19T05:09:44;92387.03;;;23.00;70.41
13033;BME280;6583;42.632;23.298;2022-08-19T05:12:10;92390.16;;;23.02;69.54
13033;BME280;6583;42.632;23.298;2022-08-19T05:14:37;92392.47;;;23.04;69.96
13033;BME280;6583;42.632;23.298;2022-08-19T05:17:04;92392.22;;;23.13;65.93
13033;BME280;6583;42.632;23.298;2022-08-19T05:19:30;92392.22;;;23.13;66.69
13033;BME280;6583;42.632;23.298;2022-08-19T05:22:16;92394.59;;;23.18;67.96
13033;BME280;6583;42.632;23.298;2022-08-19T05:25:03;92393.84;;;23.21;67.08
13033;BME280;6583;42.632;23.298;2022-08-19T05:27:30;92393.06;;;23.20;68.04
13033;BME280;6583;42.632;23.298;2022-08-19T05:29:57;92383.84;;;23.25;67.92
13033;BME280;6583;42.632;23.298;2022-08-19T05:32:24;92387.75;;;23.27;67.90
13033;BME280;6583;42.632;23.298;2022-08-19T05:34:51;92387.78;;;23.31;68.68
13033;BME280;6583;42.632;23.298;2022-08-19T05:37:19;92385.53;;;23.40;67.33
13033;BME280;6583;42.632;23.298;2022-08-19T05:39:46;92396.03;;;23.45;64.66
13033;BME280;6583;42.632;23.298;2022-08-19T05:42:14;92396.47;;;23.55;64.34
13033;BME280;6583;42.632;23.298;2022-08-19T05:44:43;92395.00;;;23.61;65.41
13033;BME280;6583;42.632;23.298;2022-08-19T05:47:11;92391.59;;;23.71;66.28
13033;BME280;6583;42.632;23.298;2022-08-19T05:49:40;92399.00;;;23.78;66.18
13033;BME280;6583;42.632;23.298;2022-08-19T05:52:09;92392.97;;;23.92;65.85
13033;BME280;6583;42.632;23.298;2022-08-19T05:54:38;92394.63;;;24.07;66.75
13033;BME280;6583;42.632;23.298;2022-08-19T05:57:08;92397.06;;;24.27;64.28
13033;BME280;6583;42.632;23.298;2022-08-19T05:59:35;92394.81;;;24.39;63.73
13033;BME280;6583;42.632;23.298;2022-08-19T06:02:03;92403.06;;;24.57;63.59
13033;BME280;6583;42.632;23.298;2022-08-19T06:04:30;92404.28;;;24.71;62.39
13033;BME280;6583;42.632;23.298;2022-08-19T06:06:57;92403.19;;;24.90;61.27
13033;BME280;6583;42.632;23.298;2022-08-19T06:09:24;92405.19;;;25.04;61.21
13033;BME280;6583;42.632;23.298;2022-08-19T06:11:55;92414.56;;;25.21;60.05
13033;BME280;6583;42.632;23.298;2022-08-19T06:14:26;92403.78;;;25.35;60.73
13033;BME280;6583;42.632;23.298;2022-08-19T06:16:53;92409.22;;;25.53;59.40
13033;BME280;6583;42.632;23.298;2022-08-19T06:19:21;92411.56;;;25.69;58.94
13033;BME280;6583;42.632;23.298;2022-08-19T06:21:51;92413.91;;;25.85;57.68
13033;BME280;6583;42.632;23.298;2022-08-19T06:24:20;92411.25;;;26.06;58.76
13033;BME280;6583;42.632;23.298;2022-08-19T06:26:49;92411.59;;;26.26;57.03
13033;BME280;6583;42.632;23.298;2022-08-19T06:29:20;92411.59;;;26.41;55.53
13033;BME280;6583;42.632;23.298;2022-08-19T06:31:49;92408.44;;;26.57;55.04
13033;BME280;6583;42.632;23.298;2022-08-19T06:34:18;92421.28;;;26.67;54.77
13033;BME280;6583;42.632;23.298;2022-08-19T06:36:48;92418.88;;;26.83;54.48
13033;BME280;6583;42.632;23.298;2022-08-19T06:39:18;92420.00;;;26.97;54.81
13033;BME280;6583;42.632;23.298;2022-08-19T06:41:47;92415.31;;;27.08;52.24
13033;BME280;6583;42.632;23.298;2022-08-19T06:44:14;92421.09;;;27.17;52.40
13033;BME280;6583;42.632;23.298;2022-08-19T06:46:43;92421.50;;;27.12;51.99
13033;BME280;6583;42.632;23.298;2022-08-19T06:49:10;92422.25;;;27.16;51.09
13033;BME280;6583;42.632;23.298;2022-08-19T06:51:39;92415.63;;;27.28;51.57
13033;BME280;6583;42.632;23.298;2022-08-19T06:54:06;92429.94;;;27.43;50.88
13033;BME280;6583;42.632;23.298;2022-08-19T06:56:33;92430.66;;;27.51;50.29
13033;BME280;6583;42.632;23.298;2022-08-19T06:59:00;92427.91;;;27.62;50.13
13033;BME280;6583;42.632;23.298;2022-08-19T07:01:27;92429.84;;;27.61;49.22
13033;BME280;6583;42.632;23.298;2022-08-19T07:03:55;92428.97;;;27.75;50.37
13033;BME280;6583;42.632;23.298;2022-08-19T07:06:23;92435.94;;;27.83;49.10
13033;BME280;6583;42.632;23.298;2022-08-19T07:08:49;92432.78;;;27.92;50.28
13033;BME280;6583;42.632;23.298;2022-08-19T07:11:18;92429.94;;;28.06;48.58
13033;BME280;6583;42.632;23.298;2022-08-19T07:13:46;92427.16;;;28.17;49.82
13033;BME280;6583;42.632;23.298;2022-08-19T07:16:18;92433.63;;;28.30;48.42
13033;BME280;6583;42.632;23.298;2022-08-19T07:18:45;92431.28;;;28.32;49.83
13033;BME280;6583;42.632;23.298;2022-08-19T07:21:16;92433.94;;;28.43;49.44
13033;BME280;6583;42.632;23.298;2022-08-19T07:23:43;92441.72;;;28.45;50.05
13033;BME280;6583;42.632;23.298;2022-08-19T07:26:12;92444.75;;;28.54;48.33
13033;BME280;6583;42.632;23.298;2022-08-19T07:28:39;92440.03;;;28.58;49.23
13033;BME280;6583;42.632;23.298;2022-08-19T07:31:06;92446.22;;;28.66;47.40
13033;BME280;6583;42.632;23.298;2022-08-19T07:33:33;92441.44;;;28.74;48.59
13033;BME280;6583;42.632;23.298;2022-08-19T07:36:03;92440.34;;;28.67;47.79
13033;BME280;6583;42.632;23.298;2022-08-19T07:38:31;92436.75;;;28.78;47.65
13033;BME280;6583;42.632;23.298;2022-08-19T07:40:58;92444.94;;;28.78;46.68
13033;BME280;6583;42.632;23.298;2022-08-19T07:43:25;92442.59;;;28.76;46.19
13033;BME280;6583;42.632;23.298;2022-08-19T07:45:52;92440.19;;;28.82;45.31
13033;BME280;6583;42.632;23.298;2022-08-19T07:48:22;92435.91;;;28.81;47.09
13033;BME280;6583;42.632;23.298;2022-08-19T07:50:51;92439.84;;;28.80;46.46
13033;BME280;6583;42.632;23.298;2022-08-19T07:53:17;92444.44;;;28.86;47.35
13033;BME280;6583;42.632;23.298;2022-08-19T07:55:47;92446.63;;;29.02;44.85
13033;BME280;6583;42.632;23.298;2022-08-19T07:58:17;92446.69;;;28.95;45.39
13033;BME280;6583;42.632;23.298;2022-08-19T08:00:47;92447.19;;;28.86;45.74
13033;BME280;6583;42.632;23.298;2022-08-19T08:03:16;92450.28;;;28.88;45.94
13033;BME280;6583;42.632;23.298;2022-08-19T08:05:43;92447.78;;;29.01;45.17
13033;BME280;6583;42.632;23.298;2022-08-19T08:08:28;92448.34;;;29.23;44.66
13033;BME280;6583;42.632;23.298;2022-08-19T08:11:17;92443.28;;;29.22;46.80
13033;BME280;6583;42.632;23.298;2022-08-19T08:13:44;92444.41;;;28.90;46.01
13033;BME280;6583;42.632;23.298;2022-08-19T08:16:10;92446.25;;;29.00;47.09
13033;BME280;6583;42.632;23.298;2022-08-19T08:18:37;92445.28;;;29.18;46.66
13033;BME280;6583;42.632;23.298;2022-08-19T08:21:07;92446.41;;;29.20;44.32
13033;BME280;6583;42.632;23.298;2022-08-19T08:23:35;92435.00;;;29.29;41.15
13033;BME280;6583;42.632;23.298;2022-08-19T08:26:01;92442.28;;;29.39;41.57
13033;BME280;6583;42.632;23.298;2022-08-19T08:28:32;92440.09;;;29.58;41.31
13033;BME280;6583;42.632;23.298;2022-08-19T08:30:59;92439.06;;;29.75;41.47
13033;BME280;6583;42.632;23.298;2022-08-19T08:33:27;92442.19;;;29.77;40.79
13033;BME280;6583;42.632;23.298;2022-08-19T08:35:55;92439.00;;;29.83;39.90
13033;BME280;6583;42.632;23.298;2022-08-19T08:38:22;92437.72;;;29.91;40.65
13033;BME280;6583;42.632;23.298;2022-08-19T08:40:50;92432.00;;;30.05;38.59
13033;BME280;6583;42.632;23.298;2022-08-19T08:43:24;92439.69;;;30.14;37.04
13033;BME280;6583;42.632;23.298;2022-08-19T08:46:00;92439.63;;;30.17;37.34
13033;BME280;6583;42.632;23.298;2022-08-19T08:48:35;92438.16;;;30.13;37.76
13033;BME280;6583;42.632;23.298;2022-08-19T08:51:05;92434.09;;;30.21;37.60
13033;BME280;6583;42.632;23.298;2022-08-19T08:53:34;92433.03;;;30.42;36.31
13033;BME280;6583;42.632;23.298;2022-08-19T08:56:03;92428.59;;;30.48;36.86
13033;BME280;6583;42.632;23.298;2022-08-19T08:58:39;92427.78;;;30.51;37.39
13033;BME280;6583;42.632;23.298;2022-08-19T09:01:11;92428.06;;;30.57;36.28
13033;BME280;6583;42.632;23.298;2022-08-19T09:03:40;92432.34;;;30.58;36.81
13033;BME280;6583;42.632;23.298;2022-08-19T09:06:12;92420.84;;;30.67;35.58
13033;BME280;6583;42.632;23.298;2022-08-19T09:08:47;92425.38;;;30.77;36.43
13033;BME280;6583;42.632;23.298;2022-08-19T09:11:19;92423.53;;;30.70;35.67
13033;BME280;6583;42.632;23.298;2022-08-19T09:13:59;92421.13;;;30.72;34.27
13033;BME280;6583;42.632;23.298;2022-08-19T09:16:30;92416.97;;;30.64;35.10
13033;BME280;6583;42.632;23.298;2022-08-19T09:19:02;92414.56;;;30.70;34.59
13033;BME280;6583;42.632;23.298;2022-08-19T09:21:29;92419.78;;;30.61;33.99
13033;BME280;6583;42.632;23.298;2022-08-19T09:23:56;92416.50;;;30.69;34.47
13033;BME280;6583;42.632;23.298;2022-08-19T09:26:25;92413.38;;;30.91;34.85
13033;BME280;6583;42.632;23.298;2022-08-19T09:28:52;92418.31;;;31.00;35.99
13033;BME280;6583;42.632;23.298;2022-08-19T09:31:21;92411.22;;;31.22;33.50
13033;BME280;6583;42.632;23.298;2022-08-19T09:33:51;92414.06;;;31.35;33.92
13033;BME280;6583;42.632;23.298;2022-08-19T09:36:20;92401.69;;;31.47;33.69
13033;BME280;6583;42.632;23.298;2022-08-19T09:38:48;92407.66;;;31.42;33.52
13033;BME280;6583;42.632;23.298;2022-08-19T09:41:18;92407.06;;;31.34;33.49
13033;BME280;6583;42.632;23.298;2022-08-19T09:43:47;92404.41;;;31.30;33.16
13033;BME280;6583;42.632;23.298;2022-08-19T09:46:18;92406.50;;;31.43;32.42
13033;BME280;6583;42.632;23.298;2022-08-19T09:48:46;92406.75;;;31.48;32.37
13033;BME280;6583;42.632;23.298;2022-08-19T09:51:21;92407.03;;;31.54;31.42
13033;BME280;6583;42.632;23.298;2022-08-19T09:53:49;92399.94;;;31.57;33.06
13033;BME280;6583;42.632;23.298;2022-08-19T09:56:18;92408.00;;;31.64;32.05
13033;BME280;6583;42.632;23.298;2022-08-19T09:58:45;92394.72;;;31.62;30.43
13033;BME280;6583;42.632;23.298;2022-08-19T10:01:16;92400.22;;;31.62;32.04
13033;BME280;6583;42.632;23.298;2022-08-19T10:03:43;92394.38;;;31.60;28.83
13033;BME280;6583;42.632;23.298;2022-08-19T10:06:12;92392.16;;;31.55;27.72
13033;BME280;6583;42.632;23.298;2022-08-19T10:08:40;92392.47;;;31.57;30.38
13033;BME280;6583;42.632;23.298;2022-08-19T10:11:09;92391.63;;;31.60;28.91
13033;BME280;6583;42.632;23.298;2022-08-19T10:13:35;92383.25;;;31.67;30.03
13033;BME280;6583;42.632;23.298;2022-08-19T10:16:04;92377.41;;;31.65;29.11
13033;BME280;6583;42.632;23.298;2022-08-19T10:18:31;92381.09;;;31.75;29.69
13033;BME280;6583;42.632;23.298;2022-08-19T10:21:04;92379.56;;;31.74;30.72
13033;BME280;6583;42.632;23.298;2022-08-19T10:23:34;92376.41;;;31.76;30.48
13033;BME280;6583;42.632;23.298;2022-08-19T10:26:03;92384.28;;;31.74;31.02
13033;BME280;6583;42.632;23.298;2022-08-19T10:28:32;92367.75;;;31.77;31.44
13033;BME280;6583;42.632;23.298;2022-08-19T10:31:03;92366.13;;;31.63;30.27
13033;BME280;6583;42.632;23.298;2022-08-19T10:33:32;92370.38;;;31.64;30.94
13033;BME280;6583;42.632;23.298;2022-08-19T10:35:59;92370.28;;;31.68;30.53
13033;BME280;6583;42.632;23.298;2022-08-19T10:38:26;92369.69;;;31.60;29.77
13033;BME280;6583;42.632;23.298;2022-08-19T10:40:54;92375.00;;;31.51;29.18
13033;BME280;6583;42.632;23.298;2022-08-19T10:43:22;92371.38;;;31.54;29.66
13033;BME280;6583;42.632;23.298;2022-08-19T10:45:52;92365.75;;;31.61;29.34
13033;BME280;6583;42.632;23.298;2022-08-19T10:48:21;92364.72;;;31.55;30.33
13033;BME280;6583;42.632;23.298;2022-08-19T10:50:47;92374.59;;;31.49;29.57
13033;BME280;6583;42.632;23.298;2022-08-19T10:53:32;92364.31;;;31.57;28.17
13033;BME280;6583;42.632;23.298;2022-08-19T10:55:58;92368.84;;;31.63;28.01
13033;BME280;6583;42.632;23.298;2022-08-19T10:58:44;92363.38;;;31.63;27.86
13033;BME280;6583;42.632;23.298;2022-08-19T11:01:11;92361.66;;;31.70;28.54
13033;BME280;6583;42.632;23.298;2022-08-19T11:03:37;92363.03;;;31.78;27.71
13033;BME280;6583;42.632;23.298;2022-08-19T11:06:06;92365.25;;;31.83;27.86
13033;BME280;6583;42.632;23.298;2022-08-19T11:08:33;92361.59;;;31.90;29.03
13033;BME280;6583;42.632;23.298;2022-08-19T11:11:04;92361.84;;;31.95;28.10
13033;BME280;6583;42.632;23.298;2022-08-19T11:13:33;92359.44;;;31.97;29.34
13033;BME280;6583;42.632;23.298;2022-08-19T11:16:06;92354.97;;;31.87;29.18
13033;BME280;6583;42.632;23.298;2022-08-19T11:18:34;92356.28;;;31.46;29.39
13033;BME280;6583;42.632;23.298;2022-08-19T11:21:09;92362.41;;;31.34;30.33
13033;BME280;6583;42.632;23.298;2022-08-19T11:23:36;92361.56;;;31.37;30.37
13033;BME280;6583;42.632;23.298;2022-08-19T11:26:04;92361.88;;;31.22;30.38
13033;BME280;6583;42.632;23.298;2022-08-19T11:28:30;92343.88;;;31.21;30.79
13033;BME280;6583;42.632;23.298;2022-08-19T11:30:57;92353.16;;;31.27;31.12
13033;BME280;6583;42.632;23.298;2022-08-19T11:33:25;92351.25;;;31.24;31.06
13033;BME280;6583;42.632;23.298;2022-08-19T11:35:52;92349.50;;;31.34;30.33
13033;BME280;6583;42.632;23.298;2022-08-19T11:38:19;92339.28;;;31.35;30.33
13033;BME280;6583;42.632;23.298;2022-08-19T11:40:54;92341.88;;;31.42;30.48
13033;BME280;6583;42.632;23.298;2022-08-19T11:43:21;92342.09;;;31.51;29.60
13033;BME280;6583;42.632;23.298;2022-08-19T11:45:47;92332.66;;;31.52;30.94
13033;BME280;6583;42.632;23.298;2022-08-19T11:48:14;92336.44;;;31.58;30.74
13033;BME280;6583;42.632;23.298;2022-08-19T11:50:42;92332.25;;;31.70;29.90
13033;BME280;6583;42.632;23.298;2022-08-19T11:53:09;92335.84;;;31.67;31.15
13033;BME280;6583;42.632;23.298;2022-08-19T11:55:37;92334.91;;;31.74;30.11
13033;BME280;6583;42.632;23.298;2022-08-19T11:58:04;92330.63;;;31.73;30.39
13033;BME280;6583;42.632;23.298;2022-08-19T12:00:33;92331.38;;;31.73;30.30
13033;BME280;6583;42.632;23.298;2022-08-19T12:03:02;92326.31;;;31.72;29.98
13033;BME280;6583;42.632;23.298;2022-08-19T12:05:29;92323.75;;;31.64;30.85
13033;BME280;6583;42.632;23.298;2022-08-19T12:07:57;92320.50;;;31.70;30.43
13033;BME280;6583;42.632;23.298;2022-08-19T12:10:24;92318.19;;;31.68;31.33
13033;BME280;6583;42.632;23.298;2022-08-19T12:12:50;92311.75;;;31.75;31.74
13033;BME280;6583;42.632;23.298;2022-08-19T12:15:17;92313.31;;;31.76;31.13
13033;BME280;6583;42.632;23.298;2022-08-19T12:17:44;92309.72;;;31.79;29.26
13033;BME280;6583;42.632;23.298;2022-08-19T12:20:12;92315.81;;;31.70;29.25
13033;BME280;6583;42.632;23.298;2022-08-19T12:22:41;92305.25;;;31.68;29.82
13033;BME280;6583;42.632;23.298;2022-08-19T12:25:10;92298.97;;;31.68;30.22
13033;BME280;6583;42.632;23.298;2022-08-19T12:27:38;92298.22;;;31.67;29.40
13033;BME280;6583;42.632;23.298;2022-08-19T12:30:07;92295.66;;;31.60;29.90
13033;BME280;6583;42.632;23.298;2022-08-19T12:32:34;92290.69;;;31.55;30.55
13033;BME280;6583;42.632;23.298;2022-08-19T12:35:01;92297.84;;;31.49;29.40
13033;BME280;6583;42.632;23.298;2022-08-19T12:37:27;92292.53;;;31.42;29.80
13033;BME280;6583;42.632;23.298;2022-08-19T12:39:56;92296.56;;;31.37;30.05
13033;BME280;6583;42.632;23.298;2022-08-19T12:42:25;92291.00;;;31.41;30.84
13033;BME280;6583;42.632;23.298;2022-08-19T12:44:51;92286.19;;;31.45;31.22
13033;BME280;6583;42.632;23.298;2022-08-19T12:47:18;92283.44;;;31.45;30.69
13033;BME280;6583;42.632;23.298;2022-08-19T12:49:45;92277.53;;;31.46;29.45
13033;BME280;6583;42.632;23.298;2022-08-19T12:52:12;92280.63;;;31.48;30.27
13033;BME280;6583;42.632;23.298;2022-08-19T12:54:41;92274.47;;;31.44;29.80
13033;BME280;6583;42.632;23.298;2022-08-19T12:57:09;92277.63;;;31.43;31.28
13033;BME280;6583;42.632;23.298;2022-08-19T12:59:38;92272.81;;;31.47;29.54
13033;BME280;6583;42.632;23.298;2022-08-19T13:02:06;92266.91;;;31.48;31.05
13033;BME280;6583;42.632;23.298;2022-08-19T13:04:33;92272.06;;;31.46;30.10
13033;BME280;6583;42.632;23.298;2022-08-19T13:07:01;92268.88;;;31.48;30.12